Etusivu
METAR-TAF:

METAR-TAF

Lentoasemat :

Esmeraldas, Ecuador

Leveyspiiri: 00-58-43N, Pituuspiiri: 079-37-36W, korkeus merenpinnasta: 10 m

Tämänhetkinen sää

Tämä raportti tehtiin 4 tuntia ja 18 minuuttia sitten, kello 22.00 UTC
Tuuli 4 kn pohjoisen/luoteesta
Lämpötila 28°C
Kosteus 84%
Ilmanpaine 1008 hPa
Näkyvyys 10 km tai enemmän
Hajonneita pilviä 2000 ft:n korkeudessa
Hajonneita pilviä 8000 ft:n korkeudessa
sadekuuroja näköpiirissä

METAR: SETN 232200Z 33004KT 9999 VCSH BKN020 BKN080 28/25 Q1008 RMK A2978

Aika: 21:18 (02:18 UTC)


TAF: puuttuu

Säähavainnot ja -ennusteet yli 4000 lentoasemalta (METAR- ja TAF-raportit).

Käytössä olevat sääasemat on merkitty karttaan keltaisilla ja punaisilla pisteillä.

Aseta hiiri pisteen päälle nähdäksesi sääaseman nimen.

Klikkaa sitten nähdäksesi säähavainnot ja -ennusteet.

Kartan vaihtaminen: klikkaa mustalla rastilla varustettuja vihreitä pisteitä, niin voit zoomata sisään; viivalla varustettua vihreää pistettä, niin voit zoomata ulos tai vihreitä nuolia, niin pääset viereisille kartoille.


METAR-TAF: